createdAt,value
2019-04-04T00:00:32.857Z,8.57
2019-04-04T00:03:02.230Z,8.87
2019-04-04T00:05:31.330Z,8.80
2019-04-04T00:08:00.635Z,9.10
2019-04-04T00:10:29.692Z,9.73
2019-04-04T00:12:58.795Z,10.13
2019-04-04T00:15:27.871Z,9.43
2019-04-04T00:17:57.072Z,10.50
2019-04-04T00:20:26.456Z,9.77
2019-04-04T00:22:55.757Z,9.70
2019-04-04T00:25:24.768Z,10.40
2019-04-04T00:27:53.883Z,11.20
2019-04-04T00:30:23.057Z,10.40
2019-04-04T00:32:52.887Z,12.17
2019-04-04T00:35:22.910Z,10.73
2019-04-04T00:37:51.976Z,11.40
2019-04-04T00:40:21.067Z,12.87
2019-04-04T00:42:50.281Z,10.83
2019-04-04T00:45:19.664Z,11.87
2019-04-04T00:47:48.805Z,12.40
2019-04-04T00:50:18.189Z,12.23
2019-04-04T00:52:47.358Z,11.73
2019-04-04T00:55:16.891Z,10.60
2019-04-04T00:57:46.053Z,11.20
2019-04-04T01:00:15.311Z,12.60
2019-04-04T01:02:44.576Z,12.90
2019-04-04T01:05:13.546Z,11.73
2019-04-04T01:07:42.990Z,12.40
2019-04-04T01:10:12.171Z,12.93
2019-04-04T01:12:41.334Z,12.20
2019-04-04T01:15:10.666Z,15.07
2019-04-04T01:17:39.754Z,13.07
2019-04-04T01:20:08.930Z,11.67
2019-04-04T01:22:38.024Z,12.10
2019-04-04T01:25:07.515Z,12.13
2019-04-04T01:27:36.947Z,12.40
2019-04-04T01:30:06.873Z,13.43
2019-04-04T01:32:36.349Z,12.77
2019-04-04T01:35:05.743Z,12.80
2019-04-04T01:37:34.945Z,12.40
2019-04-04T01:40:04.579Z,12.90
2019-04-04T01:42:33.745Z,10.90
2019-04-04T01:45:02.975Z,13.43
2019-04-04T01:47:32.889Z,13.00
2019-04-04T01:50:02.050Z,12.33
2019-04-04T01:52:31.244Z,13.23
2019-04-04T01:55:02.964Z,12.50
2019-04-04T01:57:31.777Z,13.50
2019-04-04T02:00:00.922Z,12.53
2019-04-04T02:02:30.084Z,13.97
2019-04-04T02:04:59.115Z,13.60
2019-04-04T02:07:29.747Z,15.53
2019-04-04T02:09:59.001Z,12.60
2019-04-04T02:12:28.083Z,13.00
2019-04-04T02:14:57.387Z,13.90
2019-04-04T02:17:26.421Z,13.43
2019-04-04T02:19:56.256Z,13.97
2019-04-04T02:22:25.931Z,13.20
2019-04-04T02:24:55.053Z,14.40
2019-04-04T02:27:24.095Z,12.20
2019-04-04T02:29:53.116Z,13.10
2019-04-04T02:32:26.133Z,13.00
2019-04-04T02:34:53.036Z,14.40
2019-04-04T02:37:22.178Z,13.60
2019-04-04T02:39:51.237Z,14.37
2019-04-04T02:42:22.308Z,14.47
2019-04-04T02:44:51.788Z,14.20
2019-04-04T02:47:21.274Z,13.83
2019-04-04T02:49:50.677Z,13.50
2019-04-04T02:52:19.845Z,13.83
2019-04-04T02:54:48.968Z,13.30
2019-04-04T02:57:18.370Z,14.27
2019-04-04T02:59:47.530Z,12.80
2019-04-04T03:02:16.747Z,14.27
2019-04-04T03:04:46.846Z,15.50
2019-04-04T03:07:16.362Z,16.53
2019-04-04T03:09:45.881Z,17.63
2019-04-04T03:12:15.307Z,16.83
2019-04-04T03:14:44.507Z,16.17
2019-04-04T03:17:13.839Z,17.30
2019-04-04T03:19:43.794Z,18.80
2019-04-04T03:22:13.540Z,19.03
2019-04-04T03:24:44.908Z,16.03
2019-04-04T03:27:13.298Z,15.87
2019-04-04T03:29:42.377Z,16.37
2019-04-04T03:32:14.593Z,16.57
2019-04-04T03:34:47.877Z,16.13
2019-04-04T03:37:13.802Z,16.23
2019-04-04T03:39:42.943Z,16.47
2019-04-04T03:42:11.996Z,17.60
2019-04-04T03:44:41.192Z,16.20
2019-04-04T03:47:11.267Z,17.30
2019-04-04T03:49:40.400Z,17.73
2019-04-04T03:52:11.305Z,18.20
2019-04-04T03:54:40.530Z,18.10
2019-04-04T03:57:12.245Z,17.73
2019-04-04T03:59:40.563Z,18.67
2019-04-04T04:02:09.634Z,17.57
2019-04-04T04:04:38.859Z,19.50
2019-04-04T04:07:08.342Z,18.10
2019-04-04T04:09:37.652Z,17.40
2019-04-04T04:12:10.047Z,19.13
2019-04-04T04:14:37.763Z,18.27
2019-04-04T04:17:09.145Z,17.57
2019-04-04T04:19:37.981Z,16.90
2019-04-04T04:22:07.019Z,18.20
2019-04-04T04:24:36.832Z,19.87
2019-04-04T04:27:06.208Z,17.13
2019-04-04T04:29:35.301Z,17.90
2019-04-04T04:32:04.404Z,18.30
2019-04-04T04:34:34.352Z,16.40
2019-04-04T04:37:03.744Z,17.07
2019-04-04T04:39:38.208Z,17.10
2019-04-04T04:42:04.378Z,16.20
2019-04-04T04:44:37.848Z,17.30
2019-04-04T04:47:04.504Z,15.63
2019-04-04T04:49:35.634Z,17.87
2019-04-04T04:52:04.509Z,16.00
2019-04-04T04:54:33.532Z,16.10
2019-04-04T04:57:04.039Z,16.33
2019-04-04T04:59:33.241Z,16.73
2019-04-04T05:02:02.703Z,17.63
2019-04-04T05:04:31.835Z,15.43
2019-04-04T05:07:01.251Z,16.30
2019-04-04T05:09:30.347Z,17.00
2019-04-04T05:11:59.847Z,19.63
2019-04-04T05:14:29.796Z,17.70
2019-04-04T05:16:59.883Z,17.97
2019-04-04T05:19:29.216Z,18.40
2019-04-04T05:21:58.607Z,19.30
2019-04-04T05:24:27.579Z,17.50
2019-04-04T05:26:57.073Z,17.43
2019-04-04T05:29:26.369Z,17.30
2019-04-04T05:31:55.915Z,16.57
2019-04-04T05:34:25.295Z,17.50
2019-04-04T05:36:54.533Z,16.27
2019-04-04T05:39:25.162Z,18.17
2019-04-04T05:41:54.510Z,16.67
2019-04-04T05:44:23.588Z,16.70
2019-04-04T05:46:52.708Z,16.43
2019-04-04T05:49:21.886Z,18.50
2019-04-04T05:51:51.178Z,15.70
2019-04-04T05:54:20.728Z,16.70
2019-04-04T05:56:50.182Z,16.73
2019-04-04T05:59:19.287Z,16.80
2019-04-04T06:01:48.504Z,15.40
2019-04-04T06:04:19.683Z,15.90
2019-04-04T06:06:48.135Z,16.47
2019-04-04T06:09:18.136Z,16.67
2019-04-04T06:11:48.741Z,16.93
2019-04-04T06:14:20.606Z,16.70
2019-04-04T06:16:48.998Z,16.17
2019-04-04T06:19:18.166Z,16.83
2019-04-04T06:21:47.890Z,15.27
2019-04-04T06:24:18.406Z,15.30
2019-04-04T06:26:48.009Z,14.00
2019-04-04T06:29:17.976Z,15.00
2019-04-04T06:31:47.555Z,14.97
2019-04-04T06:34:17.328Z,15.30
2019-04-04T06:36:47.009Z,15.10
2019-04-04T06:39:17.262Z,16.10
2019-04-04T06:41:46.464Z,15.13
2019-04-04T06:44:15.879Z,14.43
2019-04-04T06:46:45.423Z,15.30
2019-04-04T06:49:14.460Z,15.13
2019-04-04T06:51:46.090Z,14.77
2019-04-04T06:54:14.828Z,15.13
2019-04-04T06:56:44.219Z,13.97
2019-04-04T06:59:13.309Z,14.23
2019-04-04T07:01:42.400Z,14.10
2019-04-04T07:04:31.911Z,14.10
2019-04-04T07:07:01.188Z,14.23
2019-04-04T07:09:30.277Z,12.30
2019-04-04T07:11:59.301Z,13.87
2019-04-04T07:14:35.139Z,13.20
2019-04-04T07:17:00.109Z,14.80
2019-04-04T07:19:29.639Z,13.20
2019-04-04T07:21:58.709Z,13.23
2019-04-04T07:24:29.054Z,12.77
2019-04-04T07:26:59.213Z,12.27
2019-04-04T07:29:28.264Z,12.90
2019-04-04T07:31:57.421Z,13.70
2019-04-04T07:34:27.357Z,12.30
2019-04-04T07:36:58.261Z,14.23
2019-04-04T07:39:27.377Z,13.00
2019-04-04T07:41:56.384Z,12.87
2019-04-04T07:44:25.531Z,14.00
2019-04-04T07:46:54.560Z,13.90
2019-04-04T07:49:23.945Z,12.50
2019-04-04T07:51:53.280Z,13.23
2019-04-04T07:54:22.452Z,12.40
2019-04-04T07:56:51.461Z,14.13
2019-04-04T07:59:20.630Z,13.27
2019-04-04T08:01:51.422Z,11.70
2019-04-04T08:04:21.420Z,11.17
2019-04-04T08:06:50.775Z,12.40
2019-04-04T08:09:20.208Z,11.60
2019-04-04T08:11:49.907Z,13.93
2019-04-04T08:14:19.395Z,11.83
2019-04-04T08:16:49.028Z,11.70
2019-04-04T08:19:18.405Z,12.50
2019-04-04T08:21:47.687Z,12.80
2019-04-04T08:24:18.717Z,12.07
2019-04-04T08:26:47.735Z,12.20
2019-04-04T08:29:17.537Z,12.33
2019-04-04T08:31:46.962Z,12.47
2019-04-04T08:34:16.370Z,13.40
2019-04-04T08:36:45.434Z,11.50
2019-04-04T08:39:14.546Z,12.87
2019-04-04T08:41:44.257Z,12.43
2019-04-04T08:44:13.775Z,11.70
2019-04-04T08:46:43.185Z,12.60
2019-04-04T08:49:12.836Z,13.17
2019-04-04T08:51:42.524Z,11.67
2019-04-04T08:54:11.907Z,12.27
2019-04-04T08:56:40.963Z,11.60
2019-04-04T08:59:10.029Z,12.33
2019-04-04T09:01:39.099Z,11.87
2019-04-04T09:04:08.588Z,12.03
2019-04-04T09:06:37.834Z,13.00
2019-04-04T09:09:07.047Z,11.90
2019-04-04T09:11:36.153Z,12.33
2019-04-04T09:14:05.230Z,11.30
2019-04-04T09:16:34.448Z,12.30
2019-04-04T09:19:03.538Z,11.53
2019-04-04T09:21:32.961Z,11.37
2019-04-04T09:24:02.562Z,11.77
2019-04-04T09:26:31.846Z,11.90
2019-04-04T09:29:01.045Z,12.40
2019-04-04T09:31:30.199Z,10.63
2019-04-04T09:33:59.206Z,9.90
2019-04-04T09:36:28.717Z,8.40
2019-04-04T09:38:58.241Z,10.20
2019-04-04T09:41:27.415Z,9.60
2019-04-04T09:43:56.496Z,8.70
2019-04-04T09:46:25.929Z,10.57
2019-04-04T09:48:55.105Z,10.80
2019-04-04T09:51:24.604Z,12.50
2019-04-04T09:53:54.126Z,12.90
2019-04-04T09:56:23.235Z,11.47
2019-04-04T09:58:54.933Z,10.43
2019-04-04T10:01:28.002Z,10.30
2019-04-04T10:03:57.337Z,10.30
2019-04-04T10:06:26.665Z,12.17
2019-04-04T10:08:56.046Z,10.93
2019-04-04T10:11:25.664Z,10.67
2019-04-04T10:13:54.850Z,9.60
2019-04-04T10:16:23.939Z,10.03
2019-04-04T10:18:53.384Z,9.60
2019-04-04T10:21:22.563Z,10.63
2019-04-04T10:23:52.143Z,9.97
2019-04-04T10:26:21.452Z,10.87
2019-04-04T10:28:50.558Z,10.40
2019-04-04T10:31:20.170Z,11.13
2019-04-04T10:33:49.230Z,11.93
2019-04-04T10:36:18.539Z,13.00
2019-04-04T10:38:47.952Z,11.50
2019-04-04T10:41:17.774Z,10.87
2019-04-04T10:43:46.867Z,12.60
2019-04-04T10:46:16.319Z,12.70
2019-04-04T10:48:45.470Z,12.13
2019-04-04T10:51:14.528Z,11.67
2019-04-04T10:53:43.650Z,13.37
2019-04-04T10:56:13.058Z,12.33
2019-04-04T10:58:42.540Z,12.90
2019-04-04T11:01:12.060Z,13.47
2019-04-04T11:03:41.067Z,15.43
2019-04-04T11:06:10.840Z,13.40
2019-04-04T11:08:40.074Z,12.70
2019-04-04T11:11:09.034Z,14.37
2019-04-04T11:13:38.488Z,13.30
2019-04-04T11:16:07.520Z,13.13
2019-04-04T11:18:36.953Z,13.70
2019-04-04T11:21:06.113Z,15.10
2019-04-04T11:23:35.725Z,14.60
2019-04-04T11:26:05.661Z,13.50
2019-04-04T11:28:34.747Z,13.80
2019-04-04T11:31:04.432Z,13.70
2019-04-04T11:33:33.761Z,14.90
2019-04-04T11:36:03.078Z,14.67
2019-04-04T11:38:32.575Z,15.70
2019-04-04T11:41:01.738Z,13.50
2019-04-04T11:43:31.268Z,11.97
2019-04-04T11:46:00.414Z,13.77
2019-04-04T11:48:29.533Z,14.23
2019-04-04T11:50:59.136Z,12.80
2019-04-04T11:53:28.564Z,12.50
2019-04-04T11:55:57.964Z,12.50
2019-04-04T11:58:27.376Z,14.50
2019-04-04T12:00:57.469Z,12.43
2019-04-04T12:03:26.554Z,15.20
2019-04-04T12:05:55.752Z,14.77
2019-04-04T12:08:24.845Z,14.43
2019-04-04T12:10:54.039Z,14.83
2019-04-04T12:13:23.553Z,13.97
2019-04-04T12:15:52.689Z,15.73
2019-04-04T12:18:22.567Z,14.90
2019-04-04T12:20:51.686Z,15.83
2019-04-04T12:23:21.758Z,14.93
2019-04-04T12:25:51.160Z,15.00
2019-04-04T12:28:20.334Z,15.43
2019-04-04T12:30:49.459Z,14.00
2019-04-04T12:33:18.649Z,14.67
2019-04-04T12:35:47.867Z,14.73
2019-04-04T12:38:17.248Z,13.67
2019-04-04T12:40:46.365Z,15.27
2019-04-04T12:43:15.271Z,13.97
2019-04-04T12:45:44.601Z,14.80
2019-04-04T12:48:13.684Z,13.77
2019-04-04T12:50:42.738Z,12.77
2019-04-04T12:53:12.153Z,16.03
2019-04-04T12:55:41.781Z,14.87
2019-04-04T12:58:11.125Z,13.77
2019-04-04T13:00:40.432Z,15.70
2019-04-04T13:03:09.954Z,12.50
2019-04-04T13:05:38.945Z,13.97
2019-04-04T13:08:08.340Z,12.10
2019-04-04T13:10:37.813Z,12.53
2019-04-04T13:13:07.003Z,14.57
2019-04-04T13:15:36.006Z,15.40
2019-04-04T13:18:05.128Z,15.60
2019-04-04T13:20:35.496Z,17.17
2019-04-04T13:23:04.855Z,14.80
2019-04-04T13:25:34.431Z,14.83
2019-04-04T13:28:03.940Z,15.50
2019-04-04T13:30:33.161Z,15.47
2019-04-04T13:33:02.299Z,15.73
2019-04-04T13:35:31.957Z,15.30
2019-04-04T13:38:01.315Z,16.00
2019-04-04T13:40:31.093Z,14.77
2019-04-04T13:43:00.377Z,14.43
2019-04-04T13:45:29.919Z,14.37
2019-04-04T13:47:59.201Z,13.63
2019-04-04T13:50:28.646Z,15.47
2019-04-04T13:52:58.104Z,13.60
2019-04-04T13:55:27.909Z,12.97
2019-04-04T13:57:57.366Z,13.20
2019-04-04T14:00:26.593Z,13.30
2019-04-04T14:02:57.300Z,13.50
2019-04-04T14:05:27.032Z,13.70
2019-04-04T14:07:56.140Z,13.93
2019-04-04T14:10:25.194Z,13.40
2019-04-04T14:12:54.705Z,14.27
2019-04-04T14:15:23.792Z,14.50
2019-04-04T14:17:53.422Z,14.57
2019-04-04T14:20:23.137Z,14.97
2019-04-04T14:22:52.247Z,13.30
2019-04-04T14:25:22.007Z,13.80
2019-04-04T14:27:51.748Z,14.70
2019-04-04T14:30:20.950Z,13.87
2019-04-04T14:32:50.110Z,14.80
2019-04-04T14:35:19.324Z,16.13
2019-04-04T14:37:48.700Z,14.03
2019-04-04T14:40:17.799Z,16.10
2019-04-04T14:42:47.358Z,16.43
2019-04-04T14:45:16.512Z,16.50
2019-04-04T14:47:46.204Z,16.37
2019-04-04T14:50:15.714Z,15.80
2019-04-04T14:52:45.210Z,19.50
2019-04-04T14:55:17.779Z,18.80
2019-04-04T14:57:46.304Z,19.03
2019-04-04T15:00:16.881Z,18.73
2019-04-04T15:02:46.397Z,17.90
2019-04-04T15:05:15.784Z,19.33
2019-04-04T15:07:45.411Z,20.40
2019-04-04T15:10:15.278Z,22.50
2019-04-04T15:12:45.235Z,19.27
2019-04-04T15:15:14.652Z,20.30
2019-04-04T15:17:43.934Z,20.23
2019-04-04T15:20:13.343Z,20.90
2019-04-04T15:22:42.640Z,20.67
2019-04-04T15:25:11.831Z,18.13
2019-04-04T15:27:41.292Z,15.70
2019-04-04T15:30:10.653Z,18.73
2019-04-04T15:32:39.750Z,15.53
2019-04-04T15:35:09.110Z,14.73
2019-04-04T15:37:38.234Z,13.67
2019-04-04T15:40:07.652Z,14.30
2019-04-04T15:42:36.715Z,16.13
2019-04-04T15:45:06.017Z,15.70
2019-04-04T15:47:35.570Z,15.63
2019-04-04T15:50:05.181Z,14.97
2019-04-04T15:52:34.555Z,15.63
2019-04-04T15:55:03.640Z,17.10
2019-04-04T15:57:35.368Z,15.07
2019-04-04T16:00:04.808Z,15.03
2019-04-04T16:02:35.182Z,15.30
2019-04-04T16:05:05.319Z,15.53
2019-04-04T16:07:34.312Z,14.33
2019-04-04T16:10:03.721Z,14.00
2019-04-04T16:12:33.641Z,14.40
2019-04-04T16:15:03.345Z,16.00
2019-04-04T16:17:32.721Z,13.50
2019-04-04T16:20:02.755Z,15.37
2019-04-04T16:22:32.512Z,13.83
2019-04-04T16:25:02.499Z,15.00
2019-04-04T16:27:31.563Z,15.00
2019-04-04T16:30:01.087Z,16.20
2019-04-04T16:32:30.687Z,14.43
2019-04-04T16:34:59.844Z,15.70
2019-04-04T16:37:29.165Z,17.00
2019-04-04T16:40:08.207Z,15.67
2019-04-04T16:42:29.176Z,15.23
2019-04-04T16:44:58.305Z,17.87
2019-04-04T16:47:27.223Z,15.23
2019-04-04T16:49:56.148Z,15.20
2019-04-04T16:52:25.277Z,14.30
2019-04-04T16:54:54.778Z,14.63
2019-04-04T16:57:23.904Z,17.70
2019-04-04T16:59:53.074Z,16.37
2019-04-04T17:02:22.299Z,16.20
2019-04-04T17:04:51.927Z,15.50
2019-04-04T17:07:21.180Z,17.13
2019-04-04T17:09:50.633Z,17.73
2019-04-04T17:12:19.671Z,17.10
2019-04-04T17:14:48.811Z,17.70
2019-04-04T17:17:17.989Z,18.43
2019-04-04T17:19:47.414Z,17.83
2019-04-04T17:22:16.966Z,17.90
2019-04-04T17:24:46.214Z,17.50
2019-04-04T17:27:15.367Z,18.40
2019-04-04T17:29:44.563Z,17.67
2019-04-04T17:32:13.850Z,19.33
2019-04-04T17:34:43.300Z,17.87
2019-04-04T17:37:12.836Z,18.73
2019-04-04T17:39:42.602Z,16.40
2019-04-04T17:42:11.767Z,18.20
2019-04-04T17:44:41.406Z,22.37
2019-04-04T17:47:11.350Z,22.70
2019-04-04T17:49:41.037Z,21.23
2019-04-04T17:52:10.150Z,19.80
2019-04-04T17:54:39.555Z,21.37
2019-04-04T17:57:09.656Z,21.77
2019-04-04T17:59:38.737Z,22.77
2019-04-04T18:02:07.926Z,21.90
2019-04-04T18:04:47.762Z,24.27
2019-04-04T18:07:07.758Z,21.83
2019-04-04T18:09:36.834Z,22.80
2019-04-04T18:12:05.936Z,21.30
2019-04-04T18:14:35.118Z,21.80
2019-04-04T18:17:04.741Z,22.33
2019-04-04T18:19:34.217Z,23.40
2019-04-04T18:22:03.425Z,24.27
2019-04-04T18:24:32.823Z,22.43
2019-04-04T18:27:01.754Z,24.70
2019-04-04T18:29:30.811Z,22.30
2019-04-04T18:32:00.373Z,21.43
2019-04-04T18:34:29.308Z,21.20
2019-04-04T18:36:58.428Z,21.90
2019-04-04T18:39:27.370Z,22.50
2019-04-04T18:41:56.512Z,22.80
2019-04-04T18:44:25.601Z,21.30
2019-04-04T18:46:55.493Z,19.67
2019-04-04T18:49:25.017Z,20.70
2019-04-04T18:51:54.499Z,19.53
2019-04-04T18:54:23.606Z,20.23
2019-04-04T18:56:53.099Z,21.87
2019-04-04T18:59:22.192Z,21.30
2019-04-04T19:01:51.740Z,24.90
2019-04-04T19:04:20.999Z,24.60
2019-04-04T19:06:50.848Z,26.00
2019-04-04T19:09:19.895Z,26.53
2019-04-04T19:11:49.356Z,24.27
2019-04-04T19:14:18.493Z,24.30
2019-04-04T19:16:47.994Z,22.70
2019-04-04T19:19:17.109Z,24.57
2019-04-04T19:21:46.179Z,26.07
2019-04-04T19:24:15.333Z,24.00
2019-04-04T19:26:44.365Z,24.90
2019-04-04T19:29:13.671Z,23.80
2019-04-04T19:31:42.816Z,21.67
2019-04-04T19:34:11.936Z,22.70
2019-04-04T19:36:41.996Z,24.70
2019-04-04T19:39:18.269Z,22.43
2019-04-04T19:41:47.689Z,23.27
2019-04-04T19:44:16.843Z,22.97
2019-04-04T19:46:45.982Z,22.97
2019-04-04T19:49:15.074Z,24.53
2019-04-04T19:51:44.453Z,22.27
2019-04-04T19:54:13.638Z,22.73
2019-04-04T19:56:43.075Z,24.40
2019-04-04T19:59:12.214Z,24.20
2019-04-04T20:01:42.339Z,25.00
2019-04-04T20:04:11.871Z,23.80
2019-04-04T20:06:40.969Z,22.17
2019-04-04T20:09:10.234Z,25.13
2019-04-04T20:11:39.432Z,22.87
2019-04-04T20:14:08.526Z,23.10
2019-04-04T20:16:37.643Z,25.03
2019-04-04T20:19:06.819Z,24.07
2019-04-04T20:21:35.954Z,23.17
2019-04-04T20:24:05.411Z,23.77
2019-04-04T20:26:35.268Z,22.00
2019-04-04T20:29:04.768Z,22.40
2019-04-04T20:31:34.421Z,22.90
2019-04-04T20:34:05.942Z,23.20
2019-04-04T20:36:34.497Z,21.80
2019-04-04T20:39:04.558Z,24.90
2019-04-04T20:41:33.893Z,24.50
2019-04-04T20:44:03.108Z,23.57
2019-04-04T20:46:32.335Z,23.60
2019-04-04T20:49:01.858Z,24.07
2019-04-04T20:51:30.903Z,22.07
2019-04-04T20:54:00.007Z,24.97
2019-04-04T20:56:29.811Z,23.90
2019-04-04T20:58:59.226Z,24.20
2019-04-04T21:01:28.886Z,23.50
2019-04-04T21:03:57.979Z,23.90
2019-04-04T21:06:27.577Z,22.30
2019-04-04T21:08:56.981Z,23.60
2019-04-04T21:11:26.488Z,24.93
2019-04-04T21:13:56.796Z,24.40
2019-04-04T21:16:26.122Z,23.47
2019-04-04T21:18:55.371Z,23.60
2019-04-04T21:21:24.334Z,25.17
2019-04-04T21:23:53.772Z,23.73
2019-04-04T21:26:23.637Z,24.87
2019-04-04T21:28:52.942Z,24.17
2019-04-04T21:31:22.111Z,23.80
2019-04-04T21:33:51.717Z,24.30
2019-04-04T21:36:20.919Z,23.37
2019-04-04T21:38:50.360Z,21.63
2019-04-04T21:41:19.406Z,21.87
2019-04-04T21:43:49.178Z,23.23
2019-04-04T21:46:18.341Z,24.50
2019-04-04T21:48:47.722Z,21.67
2019-04-04T21:51:16.787Z,22.30
2019-04-04T21:53:46.145Z,23.33
2019-04-04T21:56:15.402Z,23.80
2019-04-04T21:58:44.907Z,21.23
2019-04-04T22:01:14.397Z,22.03
2019-04-04T22:03:43.760Z,22.07
2019-04-04T22:06:12.806Z,23.20
2019-04-04T22:08:42.342Z,22.50
2019-04-04T22:11:11.535Z,24.60
2019-04-04T22:13:40.941Z,27.20
2019-04-04T22:16:10.011Z,24.63
2019-04-04T22:18:39.131Z,25.30
2019-04-04T22:21:08.612Z,25.93
2019-04-04T22:23:38.029Z,24.80
2019-04-04T22:26:07.196Z,25.50
2019-04-04T22:28:36.312Z,25.93
2019-04-04T22:31:05.632Z,22.70
2019-04-04T22:33:34.724Z,23.50
2019-04-04T22:36:03.909Z,24.17
2019-04-04T22:38:33.297Z,24.63
2019-04-04T22:41:02.393Z,24.60
2019-04-04T22:43:31.715Z,24.17
2019-04-04T22:46:01.114Z,24.87
2019-04-04T22:48:30.186Z,27.20
2019-04-04T22:50:59.302Z,24.53
2019-04-04T22:53:28.512Z,25.10
2019-04-04T22:55:58.266Z,25.70
2019-04-04T22:58:28.932Z,25.53
2019-04-04T23:00:58.212Z,26.47
2019-04-04T23:03:29.018Z,29.20
2019-04-04T23:05:58.851Z,29.10
2019-04-04T23:08:28.255Z,27.70
2019-04-04T23:10:57.372Z,30.20
2019-04-04T23:13:26.574Z,29.30
2019-04-04T23:15:55.656Z,28.93
2019-04-04T23:18:25.036Z,28.70
2019-04-04T23:20:54.460Z,27.70
2019-04-04T23:23:23.541Z,28.67
2019-04-04T23:25:52.644Z,26.30
2019-04-04T23:28:22.134Z,28.03
2019-04-04T23:30:51.238Z,28.00
2019-04-04T23:33:20.740Z,26.43
2019-04-04T23:35:49.856Z,23.87
2019-04-04T23:38:18.960Z,26.23
2019-04-04T23:40:48.549Z,25.90
2019-04-04T23:43:17.631Z,26.10
2019-04-04T23:45:47.165Z,25.80
2019-04-04T23:48:16.562Z,25.50
2019-04-04T23:50:46.059Z,25.87
2019-04-04T23:53:15.171Z,24.40
2019-04-04T23:55:44.345Z,23.50
2019-04-04T23:58:13.414Z,26.50
